Time;durP1;ratioP1;P1;durP2;ratioP2;P2;SDS_P1;SDS_P2;PMS_P1;PMS_P2;Temp;Humidity;BMP_temperature;BMP_pressure;BME280_temperature;BME280_humidity;BME280_pressure;Samples;Min_cycle;Max_cycle;Signal;HPM_P1;HPM_P2
2021/06/16 00:01:02;;;;;;;;;;;17.90;84.20;;;;;;5068165;28;20276;-74
2021/06/16 00:03:28;;;;;;;;;;;17.90;84.00;;;;;;5066265;28;19912;-73
2021/06/16 00:05:53;;;;;;;;;;;17.90;83.90;;;;;;5063321;28;19922;-73
2021/06/16 00:08:19;;;;;;;;;;;17.90;84.20;;;;;;5074607;28;19913;-74
2021/06/16 00:10:45;;;;;;;;;;;17.90;84.10;;;;;;5070425;28;19923;-73
2021/06/16 00:13:11;;;;;;;;;;;18.00;84.00;;;;;;5052748;28;19920;-73
2021/06/16 00:15:39;;;;;;;;;;;18.00;83.90;;;;;;5076078;28;20061;-73
2021/06/16 00:18:05;;;;;;;;;;;17.90;84.10;;;;;;5057809;28;19959;-73
2021/06/16 00:20:31;;;;;;;;;;;17.90;84.00;;;;;;5074735;28;19909;-73
2021/06/16 00:22:57;;;;;;;;;;;17.80;84.10;;;;;;5075085;28;19920;-73
2021/06/16 00:25:23;;;;;;;;;;;17.80;84.30;;;;;;5075524;28;19966;-73
2021/06/16 00:27:48;;;;;;;;;;;17.80;84.30;;;;;;5075820;28;19916;-74
2021/06/16 00:30:14;;;;;;;;;;;17.80;84.30;;;;;;5075556;28;19912;-74
2021/06/16 00:32:42;;;;;;;;;;;17.80;84.50;;;;;;5075004;28;20011;-73
2021/06/16 00:35:08;;;;;;;;;;;17.70;84.70;;;;;;5075645;28;19912;-74
2021/06/16 00:37:34;;;;;;;;;;;17.70;84.70;;;;;;5074249;28;20584;-74
2021/06/16 00:40:00;;;;;;;;;;;17.70;85.00;;;;;;5056145;28;19935;-74
2021/06/16 00:42:26;;;;;;;;;;;17.60;85.10;;;;;;5073507;28;19913;-73
2021/06/16 00:44:52;;;;;;;;;;;17.60;85.20;;;;;;5075428;28;19951;-74
2021/06/16 00:47:17;;;;;;;;;;;17.50;85.60;;;;;;5075471;28;19912;-74
2021/06/16 00:49:43;;;;;;;;;;;17.40;85.90;;;;;;5070662;28;19916;-74
2021/06/16 00:52:08;;;;;;;;;;;17.40;86.00;;;;;;5074199;28;19917;-73
2021/06/16 00:54:34;;;;;;;;;;;17.40;86.00;;;;;;5075032;28;19916;-73
2021/06/16 00:57:01;;;;;;;;;;;17.30;86.00;;;;;;5075195;28;19913;-74
2021/06/16 00:59:33;;;;;;;;;;;17.30;86.00;;;;;;5075058;28;19919;-74
2021/06/16 01:01:59;;;;;;;;;;;17.40;85.90;;;;;;5075644;28;19963;-74
2021/06/16 01:04:26;;;;;;;;;;;17.40;86.00;;;;;;5079332;28;20315;-74
2021/06/16 01:06:54;;;;;;;;;;;17.40;85.90;;;;;;5077564;28;19958;-73
2021/06/16 01:09:29;;;;;;;;;;;17.40;85.80;;;;;;5079160;28;20313;-74
2021/06/16 01:11:57;;;;;;;;;;;17.40;86.00;;;;;;5079074;28;19925;-73
2021/06/16 01:14:35;;;;;;;;;;;17.20;86.40;;;;;;5078906;28;20331;-73
2021/06/16 01:17:02;;;;;;;;;;;17.10;86.90;;;;;;5070889;28;20201;-75
2021/06/16 01:19:46;;;;;;;;;;;17.10;87.10;;;;;;5070021;28;19921;-73
2021/06/16 01:22:30;;;;;;;;;;;17.10;87.00;;;;;;5076597;28;19920;-73
2021/06/16 01:24:56;;;;;;;;;;;17.10;86.80;;;;;;5078132;28;19913;-72
2021/06/16 01:27:23;;;;;;;;;;;17.10;86.70;;;;;;5079042;28;19916;-74
2021/06/16 01:29:50;;;;;;;;;;;17.10;86.60;;;;;;5076166;28;19912;-73
2021/06/16 01:32:15;;;;;;;;;;;17.10;86.60;;;;;;5068848;28;19917;-74
2021/06/16 01:34:42;;;;;;;;;;;17.10;86.70;;;;;;5078081;28;19923;-74
2021/06/16 01:37:08;;;;;;;;;;;17.10;86.70;;;;;;5077395;28;19944;-74
2021/06/16 01:39:35;;;;;;;;;;;17.10;86.60;;;;;;5078263;28;19955;-74
2021/06/16 01:42:03;;;;;;;;;;;17.10;86.40;;;;;;5078464;28;19921;-74
2021/06/16 01:44:29;;;;;;;;;;;17.10;86.50;;;;;;5077560;28;19912;-74
2021/06/16 01:46:55;;;;;;;;;;;17.10;86.50;;;;;;5044551;28;20058;-74
2021/06/16 01:49:21;;;;;;;;;;;17.10;86.20;;;;;;5078344;28;20277;-74
2021/06/16 01:51:47;;;;;;;;;;;17.10;86.50;;;;;;5076878;28;19927;-74
2021/06/16 01:54:14;;;;;;;;;;;17.10;86.10;;;;;;5077738;28;20209;-74
2021/06/16 01:56:40;;;;;;;;;;;17.20;86.10;;;;;;5078038;28;19966;-74
2021/06/16 01:59:07;;;;;;;;;;;17.20;86.20;;;;;;5071124;28;20004;-74
2021/06/16 02:01:33;;;;;;;;;;;17.10;86.20;;;;;;5077801;28;19999;-74
2021/06/16 02:03:59;;;;;;;;;;;17.10;86.40;;;;;;5060156;28;19951;-74
2021/06/16 02:06:27;;;;;;;;;;;17.00;85.20;;;;;;5076011;28;21599;-74
2021/06/16 02:08:53;;;;;;;;;;;17.20;84.90;;;;;;5077399;28;20209;-74
2021/06/16 02:11:20;;;;;;;;;;;17.30;84.80;;;;;;5077040;28;19920;-73
2021/06/16 02:13:47;;;;;;;;;;;17.20;85.00;;;;;;5058922;28;19916;-74
2021/06/16 02:16:18;;;;;;;;;;;17.20;84.70;;;;;;5077606;28;19912;-74
2021/06/16 02:18:45;;;;;;;;;;;17.30;84.10;;;;;;5073701;28;19917;-73
2021/06/16 02:21:11;;;;;;;;;;;17.40;83.30;;;;;;5067417;28;19965;-74
2021/06/16 02:23:36;;;;;;;;;;;17.40;83.20;;;;;;5070277;28;19913;-74
2021/06/16 02:26:03;;;;;;;;;;;17.40;83.90;;;;;;5074816;28;20327;-74
2021/06/16 02:28:28;;;;;;;;;;;17.30;83.70;;;;;;5069531;28;19955;-73
2021/06/16 02:30:54;;;;;;;;;;;17.40;83.10;;;;;;5072877;28;19983;-74
2021/06/16 02:33:20;;;;;;;;;;;17.40;83.10;;;;;;5073185;28;20332;-74
2021/06/16 02:35:45;;;;;;;;;;;17.40;83.20;;;;;;5075495;28;19963;-74
2021/06/16 02:38:12;;;;;;;;;;;17.50;81.80;;;;;;5075957;28;20336;-74
2021/06/16 02:40:39;;;;;;;;;;;17.60;82.00;;;;;;5047762;28;19913;-74
2021/06/16 02:43:06;;;;;;;;;;;17.60;82.10;;;;;;5058715;28;19916;-74
2021/06/16 02:45:32;;;;;;;;;;;17.60;81.50;;;;;;5070087;28;19913;-74
2021/06/16 02:47:59;;;;;;;;;;;17.60;81.60;;;;;;5059301;28;19962;-74
2021/06/16 02:50:26;;;;;;;;;;;17.60;81.70;;;;;;5075551;28;20007;-74
2021/06/16 02:52:52;;;;;;;;;;;17.60;82.10;;;;;;5076568;28;20220;-73
2021/06/16 02:55:18;;;;;;;;;;;17.50;81.80;;;;;;5077112;28;19912;-74
2021/06/16 02:57:44;;;;;;;;;;;17.50;82.10;;;;;;5077015;28;20099;-74
2021/06/16 03:00:11;;;;;;;;;;;17.40;82.60;;;;;;5075489;28;20516;-74
2021/06/16 03:02:39;;;;;;;;;;;17.30;83.00;;;;;;5057061;28;20021;-75
2021/06/16 03:05:05;;;;;;;;;;;17.20;83.00;;;;;;5072824;28;20000;-74
2021/06/16 03:07:32;;;;;;;;;;;17.10;83.40;;;;;;5075266;28;19912;-74
2021/06/16 03:09:58;;;;;;;;;;;17.10;83.60;;;;;;5076270;28;19917;-74
2021/06/16 03:12:24;;;;;;;;;;;17.10;83.70;;;;;;5076880;28;19912;-74
2021/06/16 03:14:53;;;;;;;;;;;17.10;83.60;;;;;;5076202;28;19912;-74
2021/06/16 03:17:19;;;;;;;;;;;17.10;83.60;;;;;;5076526;28;19909;-74
2021/06/16 03:19:45;;;;;;;;;;;17.20;83.20;;;;;;5074907;28;19916;-74
2021/06/16 03:22:11;;;;;;;;;;;17.20;83.10;;;;;;5074524;28;19912;-74
2021/06/16 03:24:37;;;;;;;;;;;17.20;82.60;;;;;;5076496;28;19916;-74
2021/06/16 03:27:04;;;;;;;;;;;17.30;82.60;;;;;;5076160;28;19913;-74
2021/06/16 03:29:32;;;;;;;;;;;17.40;82.30;;;;;;5075243;28;19912;-74
2021/06/16 03:31:57;;;;;;;;;;;17.40;81.90;;;;;;5067026;28;19917;-74
2021/06/16 03:34:23;;;;;;;;;;;17.60;80.80;;;;;;5065619;28;19928;-74
2021/06/16 03:36:50;;;;;;;;;;;17.70;80.40;;;;;;5074825;28;20034;-74
2021/06/16 03:39:15;;;;;;;;;;;17.80;80.20;;;;;;5075532;28;19916;-74
2021/06/16 03:41:41;;;;;;;;;;;17.80;80.70;;;;;;5075887;28;19920;-74
2021/06/16 03:44:07;;;;;;;;;;;17.80;80.30;;;;;;5075566;28;19916;-74
2021/06/16 03:46:34;;;;;;;;;;;17.80;80.00;;;;;;5058339;28;19921;-74
2021/06/16 03:49:00;;;;;;;;;;;17.80;80.70;;;;;;5073334;28;19912;-74
2021/06/16 03:51:27;;;;;;;;;;;17.80;80.40;;;;;;5071131;28;19920;-74
2021/06/16 03:53:53;;;;;;;;;;;17.70;81.90;;;;;;5075948;28;19908;-74
2021/06/16 03:56:21;;;;;;;;;;;17.60;83.10;;;;;;5072723;28;19916;-74
2021/06/16 03:58:46;;;;;;;;;;;17.40;83.50;;;;;;5066291;28;19926;-74
2021/06/16 04:01:13;;;;;;;;;;;17.30;83.60;;;;;;5074853;28;19916;-75
2021/06/16 04:03:39;;;;;;;;;;;17.30;83.40;;;;;;5075656;28;19960;-74
2021/06/16 04:06:06;;;;;;;;;;;17.30;83.30;;;;;;5074140;28;19917;-74
2021/06/16 04:08:31;;;;;;;;;;;17.40;82.60;;;;;;5075539;28;20259;-74
2021/06/16 04:10:57;;;;;;;;;;;17.50;83.20;;;;;;5075076;28;19920;-73
2021/06/16 04:13:23;;;;;;;;;;;17.60;82.50;;;;;;5075888;28;19913;-73
2021/06/16 04:15:48;;;;;;;;;;;17.70;82.40;;;;;;5070367;28;19912;-73
2021/06/16 04:18:14;;;;;;;;;;;17.70;82.80;;;;;;5069925;28;19924;-73
2021/06/16 04:20:39;;;;;;;;;;;17.80;82.90;;;;;;5069075;28;20115;-75
2021/06/16 04:23:05;;;;;;;;;;;17.80;82.30;;;;;;5065797;28;19955;-74
2021/06/16 04:25:30;;;;;;;;;;;17.90;82.00;;;;;;5067074;28;19962;-75
2021/06/16 04:27:56;;;;;;;;;;;18.00;82.10;;;;;;5074152;28;20313;-74
2021/06/16 04:30:22;;;;;;;;;;;18.00;82.30;;;;;;5061576;28;19913;-74
2021/06/16 04:32:48;;;;;;;;;;;18.10;81.50;;;;;;5074819;28;19999;-74
2021/06/16 04:35:14;;;;;;;;;;;18.20;82.00;;;;;;5071150;28;19970;-74
2021/06/16 04:37:40;;;;;;;;;;;18.30;81.70;;;;;;5069801;28;20018;-74
2021/06/16 04:40:06;;;;;;;;;;;18.40;82.00;;;;;;5074360;28;19920;-74
2021/06/16 04:42:31;;;;;;;;;;;18.50;81.20;;;;;;5069876;28;19966;-72
2021/06/16 04:44:57;;;;;;;;;;;18.60;80.80;;;;;;5081859;28;19917;-73
2021/06/16 04:47:23;;;;;;;;;;;18.60;80.40;;;;;;5082046;28;19908;-73
2021/06/16 04:49:49;;;;;;;;;;;18.70;81.10;;;;;;5068653;28;19912;-74
2021/06/16 04:52:14;;;;;;;;;;;18.80;81.20;;;;;;5070142;28;19985;-74
2021/06/16 04:54:40;;;;;;;;;;;18.80;80.70;;;;;;5080920;28;19923;-74
2021/06/16 04:57:06;;;;;;;;;;;18.90;81.80;;;;;;5081316;28;19939;-74
2021/06/16 04:59:32;;;;;;;;;;;18.90;81.60;;;;;;5079687;28;20297;-74
2021/06/16 05:01:58;;;;;;;;;;;19.00;81.90;;;;;;5064401;28;19932;-74
2021/06/16 05:04:24;;;;;;;;;;;19.00;82.50;;;;;;5081808;28;19920;-74
2021/06/16 05:06:49;;;;;;;;;;;19.10;81.90;;;;;;5073325;28;19939;-73
2021/06/16 05:09:15;;;;;;;;;;;19.10;81.80;;;;;;5066710;28;19917;-73
2021/06/16 05:11:40;;;;;;;;;;;19.10;82.40;;;;;;5081672;28;19919;-74
2021/06/16 05:14:06;;;;;;;;;;;19.20;81.60;;;;;;5081774;28;19954;-73
2021/06/16 05:16:31;;;;;;;;;;;19.20;80.30;;;;;;5081761;28;19966;-73
2021/06/16 05:18:58;;;;;;;;;;;19.30;81.00;;;;;;5081416;28;20314;-74
2021/06/16 05:21:24;;;;;;;;;;;19.30;81.50;;;;;;5080793;28;19915;-74
2021/06/16 05:23:50;;;;;;;;;;;19.40;81.40;;;;;;5081450;28;19912;-74
2021/06/16 05:26:16;;;;;;;;;;;19.40;82.40;;;;;;5063449;28;21603;-73
2021/06/16 05:28:42;;;;;;;;;;;19.40;82.00;;;;;;5080009;28;19919;-74
2021/06/16 05:31:09;;;;;;;;;;;19.50;82.90;;;;;;5081494;28;20317;-74
2021/06/16 05:33:35;;;;;;;;;;;19.50;81.40;;;;;;5081423;28;20287;-74
2021/06/16 05:36:01;;;;;;;;;;;19.50;82.10;;;;;;5080622;28;19916;-73
2021/06/16 05:38:26;;;;;;;;;;;19.60;81.80;;;;;;5081460;28;19915;-74
2021/06/16 05:40:52;;;;;;;;;;;19.70;81.30;;;;;;5079279;28;20186;-74
2021/06/16 05:43:20;;;;;;;;;;;19.60;82.10;;;;;;5063718;28;19914;-74
2021/06/16 05:45:46;;;;;;;;;;;19.60;82.50;;;;;;5064418;28;19909;-74
2021/06/16 05:48:11;;;;;;;;;;;19.70;81.30;;;;;;5073024;28;19909;-74
2021/06/16 05:50:37;;;;;;;;;;;19.80;80.80;;;;;;5077004;28;19916;-74
2021/06/16 05:53:03;;;;;;;;;;;19.80;81.70;;;;;;5078386;28;19987;-74
2021/06/16 05:55:28;;;;;;;;;;;19.80;82.00;;;;;;5078350;28;19915;-73
2021/06/16 05:57:54;;;;;;;;;;;19.80;82.20;;;;;;5066337;28;20210;-74
2021/06/16 06:00:23;;;;;;;;;;;19.90;82.20;;;;;;5071050;28;19919;-74
2021/06/16 06:02:48;;;;;;;;;;;19.90;82.10;;;;;;5077241;28;19962;-73
2021/06/16 06:05:14;;;;;;;;;;;20.00;82.20;;;;;;5069199;28;20757;-73
2021/06/16 06:07:40;;;;;;;;;;;20.00;81.50;;;;;;5058142;28;19912;-73
2021/06/16 06:10:06;;;;;;;;;;;20.10;81.90;;;;;;5058114;28;19936;-73
2021/06/16 06:12:31;;;;;;;;;;;20.20;81.80;;;;;;5050714;28;19912;-74
2021/06/16 06:14:57;;;;;;;;;;;20.40;80.80;;;;;;5054030;28;20003;-74
2021/06/16 06:17:22;;;;;;;;;;;20.50;81.60;;;;;;5058013;28;19936;-73
2021/06/16 06:19:48;;;;;;;;;;;20.60;81.60;;;;;;5073448;28;19912;-73
2021/06/16 06:22:13;;;;;;;;;;;20.70;82.10;;;;;;5058895;28;19947;-74
2021/06/16 06:24:39;;;;;;;;;;;20.80;82.70;;;;;;5077353;28;19948;-74
2021/06/16 06:27:05;;;;;;;;;;;20.80;83.00;;;;;;5077103;28;19941;-73
2021/06/16 06:29:30;;;;;;;;;;;20.90;82.80;;;;;;5059861;28;19919;-74
2021/06/16 06:31:56;;;;;;;;;;;21.00;83.80;;;;;;5059238;28;19916;-74
2021/06/16 06:34:21;;;;;;;;;;;21.00;82.60;;;;;;5074176;28;19916;-74
2021/06/16 06:36:47;;;;;;;;;;;21.20;82.10;;;;;;5066824;28;19912;-74
2021/06/16 06:39:14;;;;;;;;;;;21.30;80.40;;;;;;5077120;28;19916;-74
2021/06/16 06:41:40;;;;;;;;;;;21.50;80.40;;;;;;5055655;28;19921;-74
2021/06/16 06:44:05;;;;;;;;;;;21.70;79.40;;;;;;5075359;28;19999;-74
2021/06/16 06:46:31;;;;;;;;;;;22.00;77.70;;;;;;5059873;28;19920;-74
2021/06/16 06:48:57;;;;;;;;;;;22.20;78.80;;;;;;5077296;28;19912;-74
2021/06/16 06:51:22;;;;;;;;;;;22.30;77.90;;;;;;5075443;28;19921;-74
2021/06/16 06:53:48;;;;;;;;;;;22.50;77.70;;;;;;5077005;28;19939;-73
2021/06/16 06:56:13;;;;;;;;;;;22.80;72.00;;;;;;5074070;28;19916;-73
2021/06/16 06:58:39;;;;;;;;;;;23.00;73.10;;;;;;5071656;28;19935;-74
2021/06/16 07:01:05;;;;;;;;;;;23.10;72.60;;;;;;5075456;28;19908;-73
2021/06/16 07:03:33;;;;;;;;;;;23.30;73.80;;;;;;5067898;28;20190;-73
2021/06/16 07:05:59;;;;;;;;;;;23.30;76.20;;;;;;5052962;28;19916;-73
2021/06/16 07:08:25;;;;;;;;;;;23.40;75.40;;;;;;5072378;28;19913;-73
2021/06/16 07:10:50;;;;;;;;;;;23.50;73.20;;;;;;5071685;28;19917;-73
2021/06/16 07:13:19;;;;;;;;;;;23.60;76.10;;;;;;5071660;28;20341;-73
2021/06/16 07:15:44;;;;;;;;;;;23.60;75.90;;;;;;5072207;28;20089;-74
2021/06/16 07:18:10;;;;;;;;;;;23.80;72.10;;;;;;5071045;28;20356;-74
2021/06/16 07:20:35;;;;;;;;;;;23.90;73.80;;;;;;5070266;28;19927;-73
2021/06/16 07:23:01;;;;;;;;;;;24.20;73.00;;;;;;5076600;28;19959;-74
2021/06/16 07:25:26;;;;;;;;;;;24.90;72.60;;;;;;5075725;28;19977;-73
2021/06/16 07:27:52;;;;;;;;;;;25.50;70.50;;;;;;5075583;28;20006;-73
2021/06/16 07:30:18;;;;;;;;;;;26.30;67.90;;;;;;5076456;28;19916;-73
2021/06/16 07:32:43;;;;;;;;;;;27.00;66.60;;;;;;5048920;28;19920;-73
2021/06/16 07:35:09;;;;;;;;;;;27.70;61.60;;;;;;5056576;28;19971;-74
2021/06/16 07:37:36;;;;;;;;;;;28.20;58.00;;;;;;5065258;28;19935;-74
2021/06/16 07:40:02;;;;;;;;;;;28.60;57.60;;;;;;5074810;28;19913;-73
2021/06/16 07:42:28;;;;;;;;;;;28.60;56.40;;;;;;5074350;28;19920;-75
2021/06/16 07:44:53;;;;;;;;;;;28.70;56.00;;;;;;5076350;28;19913;-74
2021/06/16 07:47:19;;;;;;;;;;;28.50;57.30;;;;;;5057839;28;19916;-75
2021/06/16 07:49:44;;;;;;;;;;;28.60;58.50;;;;;;5072777;28;19912;-75
2021/06/16 07:52:10;;;;;;;;;;;28.60;56.80;;;;;;5068508;28;20016;-76
2021/06/16 07:54:35;;;;;;;;;;;28.80;57.10;;;;;;5056036;28;19909;-75
2021/06/16 07:57:04;;;;;;;;;;;28.50;57.10;;;;;;5057481;28;19913;-75
2021/06/16 07:59:30;;;;;;;;;;;28.40;58.50;;;;;;5061934;28;19913;-75
2021/06/16 08:01:55;;;;;;;;;;;28.70;57.20;;;;;;5069424;28;19916;-75
2021/06/16 08:04:24;;;;;;;;;;;29.00;57.80;;;;;;5076272;28;19916;-75
2021/06/16 08:06:51;;;;;;;;;;;29.50;56.30;;;;;;5054551;28;19909;-75
2021/06/16 08:09:17;;;;;;;;;;;29.60;55.30;;;;;;5056678;28;19909;-75
2021/06/16 08:11:42;;;;;;;;;;;29.70;57.10;;;;;;5074878;28;19919;-75
2021/06/16 08:14:08;;;;;;;;;;;30.70;54.40;;;;;;5075881;28;19912;-75
2021/06/16 08:16:33;;;;;;;;;;;30.80;55.60;;;;;;5075353;28;19912;-75
2021/06/16 08:18:59;;;;;;;;;;;31.20;54.10;;;;;;5071913;28;19921;-75
2021/06/16 08:21:27;;;;;;;;;;;31.20;54.60;;;;;;5060300;28;19974;-75
2021/06/16 08:23:52;;;;;;;;;;;31.20;55.20;;;;;;5074833;28;19955;-75
2021/06/16 08:26:18;;;;;;;;;;;31.30;55.30;;;;;;5074144;28;20009;-75
2021/06/16 08:28:44;;;;;;;;;;;32.00;53.20;;;;;;5075076;28;20003;-75
2021/06/16 08:31:09;;;;;;;;;;;31.90;52.80;;;;;;5074349;28;20522;-75
2021/06/16 08:33:37;;;;;;;;;;;31.80;53.70;;;;;;5075445;28;19922;-75
2021/06/16 08:36:03;;;;;;;;;;;31.80;52.70;;;;;;5074155;28;19913;-75
2021/06/16 08:38:29;;;;;;;;;;;32.10;54.20;;;;;;5075272;28;19919;-75
2021/06/16 08:40:54;;;;;;;;;;;32.30;51.90;;;;;;5074865;28;19912;-75
2021/06/16 08:43:20;;;;;;;;;;;31.40;52.20;;;;;;5074796;28;19912;-75
2021/06/16 08:45:47;;;;;;;;;;;31.00;54.10;;;;;;5075051;28;19916;-75
2021/06/16 08:48:13;;;;;;;;;;;31.10;54.50;;;;;;5074910;28;20263;-75
2021/06/16 08:50:38;;;;;;;;;;;31.50;55.90;;;;;;5055822;28;19912;-75
2021/06/16 08:53:04;;;;;;;;;;;32.20;53.70;;;;;;5072833;28;19970;-75
2021/06/16 08:55:29;;;;;;;;;;;32.10;53.60;;;;;;5074937;28;19912;-75
2021/06/16 08:57:55;;;;;;;;;;;32.40;51.30;;;;;;5074381;28;19975;-75
2021/06/16 09:00:21;;;;;;;;;;;32.60;52.30;;;;;;5075414;28;20287;-75
2021/06/16 09:02:47;;;;;;;;;;;32.80;51.40;;;;;;5069747;28;19965;-75
2021/06/16 09:05:12;;;;;;;;;;;33.30;51.60;;;;;;5074063;28;19912;-75
2021/06/16 09:07:39;;;;;;;;;;;32.60;51.70;;;;;;5073588;28;19930;-75
2021/06/16 09:10:05;;;;;;;;;;;32.20;52.20;;;;;;5075448;28;19909;-74
2021/06/16 09:12:31;;;;;;;;;;;32.50;50.60;;;;;;5074352;28;20203;-75
2021/06/16 09:14:59;;;;;;;;;;;32.40;52.70;;;;;;5074423;28;19908;-75
2021/06/16 09:17:25;;;;;;;;;;;32.80;52.30;;;;;;5055431;28;19909;-75
2021/06/16 09:19:52;;;;;;;;;;;33.40;50.90;;;;;;5066004;28;20319;-75
2021/06/16 09:22:17;;;;;;;;;;;33.60;50.00;;;;;;5072991;28;19919;-75
2021/06/16 09:24:44;;;;;;;;;;;33.70;49.60;;;;;;5077156;28;19918;-75
2021/06/16 09:27:10;;;;;;;;;;;34.00;51.10;;;;;;5077454;28;20213;-75
2021/06/16 09:29:36;;;;;;;;;;;34.40;51.70;;;;;;5078325;28;19912;-75
2021/06/16 09:32:03;;;;;;;;;;;35.10;47.30;;;;;;5078224;28;19962;-75
2021/06/16 09:34:29;;;;;;;;;;;35.60;48.60;;;;;;5078209;28;19924;-75
2021/06/16 09:36:55;;;;;;;;;;;35.90;47.50;;;;;;5077326;28;19978;-75
2021/06/16 09:39:24;;;;;;;;;;;35.10;49.10;;;;;;5078397;28;19916;-75
2021/06/16 09:41:53;;;;;;;;;;;35.80;47.70;;;;;;5078795;28;19996;-75
2021/06/16 09:44:37;;;;;;;;;;;35.30;46.10;;;;;;5077684;28;19920;-75
2021/06/16 09:47:37;;;;;;;;;;;35.40;47.00;;;;;;5078124;28;19912;-75
2021/06/16 09:50:04;;;;;;;;;;;35.30;49.60;;;;;;5054930;28;20289;-75
2021/06/16 09:52:37;;;;;;;;;;;34.70;49.30;;;;;;5063081;28;19964;-75
2021/06/16 09:55:04;;;;;;;;;;;34.50;50.00;;;;;;5071542;28;19960;-75
2021/06/16 09:57:30;;;;;;;;;;;34.70;50.00;;;;;;5078255;28;19922;-75
2021/06/16 10:00:00;;;;;;;;;;;34.40;47.30;;;;;;5078157;28;19999;-74
2021/06/16 10:02:29;;;;;;;;;;;33.50;49.00;;;;;;5077764;28;19954;-74
2021/06/16 10:04:57;;;;;;;;;;;33.60;48.00;;;;;;5077057;28;19912;-74
2021/06/16 10:07:22;;;;;;;;;;;33.60;49.10;;;;;;5072810;28;19916;-74
2021/06/16 10:09:49;;;;;;;;;;;33.80;47.80;;;;;;5060106;28;19923;-76
2021/06/16 10:12:15;;;;;;;;;;;34.00;47.30;;;;;;5078037;28;19916;-76
2021/06/16 10:14:41;;;;;;;;;;;32.90;51.40;;;;;;5078019;28;19909;-76
2021/06/16 10:17:07;;;;;;;;;;;33.40;50.70;;;;;;5077803;28;20355;-75
2021/06/16 10:19:34;;;;;;;;;;;33.70;49.50;;;;;;5078085;28;19908;-75
2021/06/16 10:22:00;;;;;;;;;;;34.40;48.10;;;;;;5058616;28;20367;-75
2021/06/16 10:24:25;;;;;;;;;;;34.00;49.10;;;;;;5075831;28;19916;-76
2021/06/16 10:26:55;;;;;;;;;;;34.30;50.50;;;;;;5077678;28;20003;-74
2021/06/16 10:29:21;;;;;;;;;;;34.60;48.20;;;;;;5077372;28;20224;-75
2021/06/16 10:31:47;;;;;;;;;;;34.60;48.60;;;;;;5077562;28;19912;-75
2021/06/16 10:34:12;;;;;;;;;;;33.90;47.60;;;;;;5076800;28;20280;-74
2021/06/16 10:36:39;;;;;;;;;;;33.80;48.80;;;;;;5059570;28;19917;-75
2021/06/16 10:39:06;;;;;;;;;;;34.00;46.60;;;;;;5073571;28;19915;-75
2021/06/16 10:41:41;;;;;;;;;;;34.30;48.90;;;;;;5077450;28;20003;-75
2021/06/16 10:44:13;;;;;;;;;;;34.80;47.30;;;;;;5077353;28;19915;-75
2021/06/16 10:46:49;;;;;;;;;;;35.30;47.90;;;;;;5064746;28;19966;-74
2021/06/16 10:49:35;;;;;;;;;;;34.90;48.80;;;;;;5071259;28;19912;-75
2021/06/16 10:52:00;;;;;;;;;;;33.90;47.90;;;;;;5074944;28;20007;-75
2021/06/16 10:54:28;;;;;;;;;;;33.90;52.80;;;;;;5072288;28;20294;-75
2021/06/16 10:57:01;;;;;;;;;;;34.20;49.40;;;;;;5076505;28;20224;-76
2021/06/16 10:59:44;;;;;;;;;;;34.30;46.60;;;;;;5073661;28;19920;-75
2021/06/16 11:02:16;;;;;;;;;;;34.50;48.40;;;;;;5074912;28;19962;-75
2021/06/16 11:04:42;;;;;;;;;;;34.80;47.80;;;;;;5062974;28;19943;-75
2021/06/16 11:07:26;;;;;;;;;;;34.80;47.30;;;;;;5065251;28;19916;-75
2021/06/16 11:09:53;;;;;;;;;;;34.80;48.50;;;;;;5070943;28;19916;-75
2021/06/16 11:12:37;;;;;;;;;;;35.20;47.20;;;;;;5071767;28;19946;-75
2021/06/16 11:15:05;;;;;;;;;;;35.30;46.10;;;;;;5053459;28;19913;-74
2021/06/16 11:17:33;;;;;;;;;;;35.00;47.00;;;;;;5059059;28;19966;-75
2021/06/16 11:20:00;;;;;;;;;;;35.10;49.40;;;;;;5072853;28;20253;-75
2021/06/16 11:22:25;;;;;;;;;;;35.40;47.30;;;;;;5064303;28;19975;-75
2021/06/16 11:25:00;;;;;;;;;;;35.20;47.60;;;;;;5057976;28;19909;-75
2021/06/16 11:27:44;;;;;;;;;;;35.10;47.80;;;;;;5065409;28;19999;-75
2021/06/16 11:30:10;;;;;;;;;;;34.60;46.80;;;;;;5060768;28;19909;-75
2021/06/16 11:32:36;;;;;;;;;;;33.00;49.20;;;;;;5055048;28;19923;-74
2021/06/16 11:35:03;;;;;;;;;;;32.80;50.10;;;;;;5037005;28;20214;-76
2021/06/16 11:37:47;;;;;;;;;;;32.80;49.60;;;;;;5047044;28;20378;-76
2021/06/16 11:40:17;;;;;;;;;;;33.00;51.30;;;;;;5058060;28;20008;-76
2021/06/16 11:42:43;;;;;;;;;;;32.60;53.20;;;;;;5056918;28;19913;-76
2021/06/16 11:45:10;;;;;;;;;;;33.10;51.90;;;;;;5052347;28;19912;-76
2021/06/16 11:47:35;;;;;;;;;;;33.80;50.00;;;;;;5069063;28;19913;-76
2021/06/16 11:50:01;;;;;;;;;;;34.30;49.30;;;;;;5051901;28;19913;-76
2021/06/16 11:52:27;;;;;;;;;;;34.40;47.00;;;;;;5034969;28;20585;-76
2021/06/16 11:54:52;;;;;;;;;;;34.50;50.50;;;;;;5058451;28;19952;-76
2021/06/16 11:57:19;;;;;;;;;;;33.90;47.30;;;;;;5055673;28;19913;-76
2021/06/16 11:59:49;;;;;;;;;;;32.90;51.10;;;;;;5042658;28;19913;-75
2021/06/16 12:02:20;;;;;;;;;;;33.20;52.00;;;;;;5038145;28;20389;-76
2021/06/16 12:04:52;;;;;;;;;;;34.10;50.40;;;;;;5043254;28;20398;-75
2021/06/16 12:07:19;;;;;;;;;;;34.70;49.70;;;;;;5056085;28;19924;-76
2021/06/16 12:09:45;;;;;;;;;;;35.40;48.20;;;;;;5059867;28;20039;-75
2021/06/16 12:12:11;;;;;;;;;;;35.00;47.50;;;;;;5054382;28;19924;-75
2021/06/16 12:14:36;;;;;;;;;;;35.00;48.60;;;;;;5068492;28;20241;-75
2021/06/16 12:17:05;;;;;;;;;;;35.00;48.50;;;;;;5069656;28;19985;-75
2021/06/16 12:19:38;;;;;;;;;;;34.90;47.70;;;;;;5067123;28;19913;-76
2021/06/16 12:22:04;;;;;;;;;;;35.00;45.90;;;;;;5053307;28;19913;-75
2021/06/16 12:24:35;;;;;;;;;;;34.70;46.50;;;;;;5047731;28;19912;-74
2021/06/16 12:27:09;;;;;;;;;;;34.70;47.00;;;;;;5073476;28;19916;-75
2021/06/16 12:29:36;;;;;;;;;;;34.90;46.60;;;;;;5055870;28;19967;-77
2021/06/16 12:32:05;;;;;;;;;;;35.20;46.20;;;;;;5054743;28;19923;-75
2021/06/16 12:34:34;;;;;;;;;;;35.30;49.30;;;;;;5063137;28;19927;-74
2021/06/16 12:37:18;;;;;;;;;;;34.90;48.00;;;;;;5065600;28;19913;-76
2021/06/16 12:40:00;;;;;;;;;;;34.90;46.30;;;;;;5054825;28;19916;-75
2021/06/16 12:42:46;;;;;;;;;;;34.90;48.60;;;;;;5061169;28;19912;-76
2021/06/16 12:45:30;;;;;;;;;;;34.40;48.60;;;;;;5038436;28;19935;-76
2021/06/16 12:47:57;;;;;;;;;;;33.50;49.90;;;;;;5051065;28;20011;-76
2021/06/16 12:50:35;;;;;;;;;;;34.30;50.40;;;;;;5053671;28;20407;-75
2021/06/16 12:53:11;;;;;;;;;;;34.70;49.00;;;;;;5037365;28;19943;-74
2021/06/16 12:55:41;;;;;;;;;;;34.80;48.80;;;;;;5053924;28;19940;-74
2021/06/16 12:58:08;;;;;;;;;;;34.90;47.80;;;;;;5062761;28;19913;-75
2021/06/16 13:00:33;;;;;;;;;;;35.10;49.30;;;;;;5057171;28;19924;-74
2021/06/16 13:03:09;;;;;;;;;;;35.20;49.10;;;;;;5058892;28;20240;-75
2021/06/16 13:05:34;;;;;;;;;;;35.70;47.00;;;;;;5057470;28;19916;-74
2021/06/16 13:08:01;;;;;;;;;;;35.90;46.20;;;;;;5058956;28;19916;-73
2021/06/16 13:10:26;;;;;;;;;;;35.60;47.30;;;;;;5058356;28;19912;-75
2021/06/16 13:12:55;;;;;;;;;;;34.40;46.80;;;;;;5044688;28;19996;-73
2021/06/16 13:15:21;;;;;;;;;;;33.10;49.70;;;;;;5051149;28;19916;-74
2021/06/16 13:17:48;;;;;;;;;;;33.60;50.10;;;;;;5058630;28;19923;-73
2021/06/16 13:20:25;;;;;;;;;;;33.90;48.90;;;;;;5057900;28;19928;-74
2021/06/16 13:22:50;;;;;;;;;;;34.70;49.20;;;;;;5041079;28;19915;-74
2021/06/16 13:25:24;;;;;;;;;;;34.60;47.10;;;;;;5058044;28;20031;-73
2021/06/16 13:27:54;;;;;;;;;;;35.30;46.30;;;;;;5058454;28;20224;-73
2021/06/16 13:30:22;;;;;;;;;;;35.40;47.10;;;;;;5052997;28;19913;-74
2021/06/16 13:32:48;;;;;;;;;;;35.60;48.70;;;;;;5045722;28;19921;-73
2021/06/16 13:35:13;;;;;;;;;;;36.20;46.40;;;;;;5038208;28;19936;-74
2021/06/16 13:37:39;;;;;;;;;;;36.30;48.60;;;;;;5056180;28;19920;-73
2021/06/16 13:40:05;;;;;;;;;;;37.10;44.40;;;;;;5057924;28;19916;-74
2021/06/16 13:42:30;;;;;;;;;;;37.00;44.70;;;;;;5057160;28;19913;-74
2021/06/16 13:44:56;;;;;;;;;;;36.60;46.70;;;;;;5057800;28;19920;-73
2021/06/16 13:47:22;;;;;;;;;;;36.70;46.60;;;;;;5056932;28;20311;-73
2021/06/16 13:49:47;;;;;;;;;;;36.80;47.00;;;;;;5056996;28;20277;-73
2021/06/16 13:52:13;;;;;;;;;;;36.70;45.90;;;;;;5056081;28;19916;-73
2021/06/16 13:54:38;;;;;;;;;;;36.60;44.50;;;;;;5057864;28;20333;-74
2021/06/16 13:57:04;;;;;;;;;;;36.80;43.80;;;;;;5057226;28;20301;-73
2021/06/16 13:59:29;;;;;;;;;;;36.50;44.80;;;;;;5057569;28;19913;-73
2021/06/16 14:01:55;;;;;;;;;;;36.60;44.50;;;;;;5056189;28;19909;-73
2021/06/16 14:04:22;;;;;;;;;;;37.20;46.20;;;;;;5055676;28;19913;-75
2021/06/16 14:06:48;;;;;;;;;;;37.50;44.80;;;;;;5054698;28;19983;-74
2021/06/16 14:09:14;;;;;;;;;;;36.80;47.20;;;;;;5056456;28;20012;-75
2021/06/16 14:11:41;;;;;;;;;;;36.50;45.90;;;;;;5057017;28;19921;-75
2021/06/16 14:14:06;;;;;;;;;;;36.60;45.20;;;;;;5056858;28;19909;-75
2021/06/16 14:16:32;;;;;;;;;;;36.50;44.10;;;;;;5056839;28;19913;-75